Latest Weather Observations for Fawkner Beacon

IDV60801

Issued at 8:12 am EDT Friday 21 January 2022 (issued every 10 minutes, with the page automatically refreshed every 10 minutes)

About weather observations | Map of weather stations | Latest weather observations for VIC | Other Formats
Station Details ID: 086376 Name: FAWKNER BEACON Lat: -37.95 Lon: 144.93 Height: 17.0 m
Data from the previous 72 hours. | See also: Recent months at Fawkner Beacon
Date/Time
EDT
Temp
°C
App
Temp
°C
Dew
Point
°C
Rel
Hum
%
Delta-T
°C
Wind Press
QNH
hPa
Press
MSL
hPa
Rain since
9am
mm
Dir  Spd
km/h
Gust
km/h
Spd
kts
Gust
kts
21/08:00am - - - - - N 30 39 16 21 - - -
21/07:30am - - - - - N 26 30 14 16 - - -
21/07:00am - - - - - N 19 24 10 13 - - -
21/06:30am - - - - - N 19 22 10 12 - - -
21/06:00am - - - - - N 13 17 7 9 - - -
21/05:30am - - - - - NNW 9 11 5 6 - - -
21/05:00am - - - - - NNW 13 17 7 9 - - -
21/04:30am - - - - - NNW 13 17 7 9 - - -
21/04:00am - - - - - NNW 19 22 10 12 - - -
21/03:30am - - - - - N 20 26 11 14 - - -
21/03:00am - - - - - NE 13 17 7 9 - - -
21/02:30am - - - - - ENE 13 17 7 9 - - -
21/02:00am - - - - - ENE 17 20 9 11 - - -
21/01:30am - - - - - E 20 24 11 13 - - -
21/01:00am - - - - - E 17 20 9 11 - - -
21/12:30am - - - - - E 17 20 9 11 - - -
21/12:00am - - - - - ENE 22 26 12 14 - - -
 
Date/Time
EDT
Temp
°C
App
Temp
°C
Dew
Point
°C
Rel
Hum
%
Delta-T
°C
Wind Press
QNH
hPa
Press
MSL
hPa
Rain since
9am
mm
Dir  Spd
km/h
Gust
km/h
Spd
kts
Gust
kts
20/11:30pm - - - - - E 32 39 17 21 - - -
20/11:00pm - - - - - E 39 46 21 25 - - -
20/10:30pm - - - - - E 46 57 25 31 - - -
20/10:00pm - - - - - E 46 57 25 31 - - -
20/09:30pm - - - - - E 48 54 26 29 - - -
20/09:00pm - - - - - E 48 57 26 31 - - -
20/08:30pm - - - - - E 48 57 26 31 - - -
20/08:00pm - - - - - E 44 52 24 28 - - -
20/07:30pm - - - - - ESE 44 52 24 28 - - -
20/07:00pm - - - - - ESE 43 50 23 27 - - -
20/06:30pm - - - - - ESE 30 39 16 21 - - -
20/06:00pm - - - - - ESE 35 43 19 23 - - -
20/05:30pm - - - - - ESE 35 43 19 23 - - -
20/05:00pm - - - - - ESE 39 44 21 24 - - -
20/04:30pm - - - - - ESE 33 41 18 22 - - -
20/04:00pm - - - - - ESE 35 43 19 23 - - -
20/03:30pm - - - - - ESE 32 41 17 22 - - -
20/03:00pm - - - - - ESE 33 41 18 22 - - -
20/02:30pm - - - - - ESE 32 35 17 19 - - -
20/02:00pm - - - - - SW 13 20 7 11 - - -
20/01:30pm - - - - - WSW 13 15 7 8 - - -
20/01:00pm - - - - - W 11 15 6 8 - - -
20/12:30pm - - - - - WSW 7 9 4 5 - - -
20/12:00pm - - - - - WSW 7 11 4 6 - - -
20/11:30am - - - - - WSW 9 11 5 6 - - -
20/11:00am - - - - - W 7 9 4 5 - - -
20/10:30am - - - - - WNW 6 7 3 4 - - -
20/10:00am - - - - - N 6 9 3 5 - - -
20/09:30am - - - - - NNE 9 13 5 7 - - -
20/09:00am - - - - - ENE 19 24 10 13 - - -
20/08:30am - - - - - ENE 26 30 14 16 - - -
20/08:00am - - - - - E 28 33 15 18 - - -
20/07:30am - - - - - E 33 43 18 23 - - -
20/07:00am - - - - - E 35 44 19 24 - - -
20/06:30am - - - - - E 35 41 19 22 - - -
20/06:00am - - - - - E 32 39 17 21 - - -
20/05:30am - - - - - E 33 41 18 22 - - -
20/05:00am - - - - - E 35 43 19 23 - - -
20/04:30am - - - - - E 28 33 15 18 - - -
20/04:00am - - - - - E 32 43 17 23 - - -
20/03:30am - - - - - E 35 44 19 24 - - -
20/03:00am - - - - - E 39 50 21 27 - - -
20/02:30am - - - - - E 48 59 26 32 - - -
20/02:00am - - - - - E 50 61 27 33 - - -
20/01:30am - - - - - E 52 63 28 34 - - -
20/01:00am - - - - - E 52 63 28 34 - - -
20/12:30am - - - - - E 56 70 30 38 - - -
20/12:00am - - - - - E 61 76 33 41 - - -
 
Date/Time
EDT
Temp
°C
App
Temp
°C
Dew
Point
°C
Rel
Hum
%
Delta-T
°C
Wind Press
QNH
hPa
Press
MSL
hPa
Rain since
9am
mm
Dir  Spd
km/h
Gust
km/h
Spd
kts
Gust
kts
19/11:30pm - - - - - E 59 70 32 38 - - -
19/11:00pm - - - - - E 59 69 32 37 - - -
19/10:30pm - - - - - E 56 65 30 35 - - -
19/10:00pm - - - - - E 52 63 28 34 - - -
19/09:30pm - - - - - E 54 63 29 34 - - -
19/09:00pm - - - - - E 46 61 25 33 - - -
19/08:30pm - - - - - E 44 54 24 29 - - -
19/08:00pm - - - - - E 44 52 24 28 - - -
19/07:30pm - - - - - E 52 63 28 34 - - -
19/07:00pm - - - - - E 54 63 29 34 - - -
19/06:30pm - - - - - E 56 67 30 36 - - -
19/06:00pm - - - - - E 59 72 32 39 - - -
19/05:30pm - - - - - E 57 72 31 39 - - -
19/05:00pm - - - - - E 61 72 33 39 - - -
19/04:30pm - - - - - E 61 78 33 42 - - -
19/04:23pm - - - - - E 57 76 31 41 - - -
19/04:00pm - - - - - E 59 69 32 37 - - -
19/03:30pm - - - - - E 57 72 31 39 - - -
19/03:00pm - - - - - E 61 72 33 39 - - -
19/02:42pm - - - - - E 57 76 31 41 - - -
19/02:30pm - - - - - E 57 70 31 38 - - -
19/02:27pm - - - - - E 57 76 31 41 - - -
19/02:00pm - - - - - E 57 70 31 38 - - -
19/01:30pm - - - - - E 57 70 31 38 - - -
19/01:00pm - - - - - E 57 67 31 36 - - -
19/12:30pm - - - - - E 50 61 27 33 - - -
19/12:00pm - - - - - E 54 70 29 38 - - -
19/11:30am - - - - - E 59 76 32 41 - - -
19/11:11am - - - - - E 61 83 33 45 - - -
19/11:00am - - - - - E 63 76 34 41 - - -
19/10:30am - - - - - E 59 72 32 39 - - -
19/10:00am - - - - - E 54 69 29 37 - - -
19/09:30am - - - - - E 54 69 29 37 - - -
19/09:00am - - - - - E 50 61 27 33 - - -
19/08:30am - - - - - E 50 67 27 36 - - -
19/08:00am - - - - - E 50 63 27 34 - - -
19/07:30am - - - - - E 48 57 26 31 - - -
19/07:07am - - - - - E 48 67 26 36 - - -
19/07:00am - - - - - E 48 61 26 33 - - -
19/06:30am - - - - - E 48 61 26 33 - - -
19/06:00am - - - - - ESE 43 54 23 29 - - -
19/05:30am - - - - - ESE 46 59 25 32 - - -
19/05:00am - - - - - SE 48 57 26 31 - - -
19/04:30am - - - - - SE 44 52 24 28 - - -
19/04:00am - - - - - ESE 39 46 21 25 - - -
19/03:30am - - - - - ESE 35 44 19 24 - - -
19/03:00am - - - - - ESE 32 39 17 21 - - -
19/02:30am - - - - - ESE 32 41 17 22 - - -
19/02:00am - - - - - SE 30 35 16 19 - - -
19/01:30am - - - - - ESE 32 39 17 21 - - -
19/01:00am - - - - - SE 30 33 16 18 - - -
19/12:30am - - - - - SE 30 35 16 19 - - -
19/12:00am - - - - - SE 28 35 15 19 - - -
 
Date/Time
EDT
Temp
°C
App
Temp
°C
Dew
Point
°C
Rel
Hum
%
Delta-T
°C
Wind Press
QNH
hPa
Press
MSL
hPa
Rain since
9am
mm
Dir  Spd
km/h
Gust
km/h
Spd
kts
Gust
kts
18/11:30pm - - - - - SSE 30 35 16 19 - - -
18/11:00pm - - - - - SSE 30 35 16 19 - - -
18/10:30pm - - - - - SE 30 39 16 21 - - -
18/10:00pm - - - - - SSE 32 39 17 21 - - -
18/09:30pm - - - - - SE 30 39 16 21 - - -
18/09:00pm - - - - - SSE 35 43 19 23 - - -
18/08:30pm - - - - - SSE 33 43 18 23 - - -
18/08:00pm - - - - - SSE 37 44 20 24 - - -
18/07:30pm - - - - - SSE 37 44 20 24 - - -
18/07:00pm - - - - - SSE 33 41 18 22 - - -
18/06:30pm - - - - - SSE 35 44 19 24 - - -
18/06:00pm - - - - - SSE 35 44 19 24 - - -
18/05:30pm - - - - - SSE 32 39 17 21 - - -
18/05:00pm - - - - - SSE 32 39 17 21 - - -
18/04:30pm - - - - - S 33 43 18 23 - - -
18/04:00pm - - - - - S 32 39 17 21 - - -
18/03:30pm - - - - - S 35 41 19 22 - - -
18/03:00pm - - - - - S 35 44 19 24 - - -
18/02:30pm - - - - - S 32 35 17 19 - - -
18/02:00pm - - - - - SSE 32 41 17 22 - - -
18/01:30pm - - - - - S 26 32 14 17 - - -
18/01:00pm - - - - - SSE 28 33 15 18 - - -
18/12:30pm - - - - - SSE 26 32 14 17 - - -
18/12:00pm - - - - - SSE 20 30 11 16 - - -
18/11:30am - - - - - SSE 19 24 10 13 - - -
18/11:00am - - - - - SE 20 28 11 15 - - -
18/10:30am - - - - - SE 20 26 11 14 - - -
18/10:00am - - - - - SE 19 26 10 14 - - -
18/09:30am - - - - - SE 19 24 10 13 - - -
18/09:00am - - - - - SSE 17 26 9 14 - - -
18/08:30am - - - - - SE 17 22 9 12 - - -

Other formats

Comma delimited format used in spreadsheet applications
http://www.bom.gov.au/fwo/IDV60801/IDV60801.95872.axf

JavaScript Object Notation format (JSON) in row-major order
http://www.bom.gov.au/fwo/IDV60801/IDV60801.95872.json

Data quality

Most of these data are generated automatically and are frequently updated. Quality checks on data are not normally performed. It is possible for incorrect values to appear. Refer to information at About Latest Weather Observations and please check the disclaimer before using these data.